createdAt,value
2018-03-20T00:00:38.429Z,74.32
2018-03-20T00:01:38.663Z,74.22
2018-03-20T00:02:38.903Z,74.41
2018-03-20T00:03:39.147Z,74.79
2018-03-20T00:04:39.398Z,74.79
2018-03-20T00:05:39.639Z,74.41
2018-03-20T00:06:39.890Z,74.66
2018-03-20T00:07:40.149Z,74.76
2018-03-20T00:08:40.369Z,75.42
2018-03-20T00:09:40.597Z,75.23
2018-03-20T00:10:40.838Z,75.42
2018-03-20T00:11:41.075Z,75.13
2018-03-20T00:12:41.324Z,75.42
2018-03-20T00:13:41.571Z,75.32
2018-03-20T00:14:41.800Z,75.23
2018-03-20T00:15:42.031Z,75.13
2018-03-20T00:16:42.301Z,75.23
2018-03-20T00:17:42.544Z,75.32
2018-03-20T00:18:42.775Z,75.79
2018-03-20T00:19:43.037Z,75.70
2018-03-20T00:20:43.273Z,75.60
2018-03-20T00:21:43.547Z,75.42
2018-03-20T00:22:43.746Z,75.70
2018-03-20T00:23:43.972Z,75.60
2018-03-20T00:24:44.206Z,75.89
2018-03-20T00:25:44.454Z,75.89
2018-03-20T00:26:44.704Z,75.79
2018-03-20T00:27:44.948Z,75.51
2018-03-20T00:28:45.193Z,75.13
2018-03-20T00:29:45.409Z,75.79
2018-03-20T00:30:45.677Z,75.70
2018-03-20T00:31:45.894Z,75.70
2018-03-20T00:32:46.126Z,75.89
2018-03-20T00:33:46.371Z,75.51
2018-03-20T00:34:46.591Z,75.79
2018-03-20T00:35:46.823Z,75.70
2018-03-20T00:36:47.058Z,75.89
2018-03-20T00:37:47.291Z,75.89
2018-03-20T00:38:47.543Z,75.70
2018-03-20T00:39:47.793Z,75.70
2018-03-20T00:40:47.995Z,75.51
2018-03-20T00:41:48.236Z,75.79
2018-03-20T00:42:48.476Z,75.89
2018-03-20T00:43:48.704Z,75.51
2018-03-20T00:44:48.964Z,75.70
2018-03-20T00:45:49.178Z,75.51
2018-03-20T00:46:49.441Z,76.17
2018-03-20T00:47:49.672Z,76.64
2018-03-20T00:48:49.917Z,76.54
2018-03-20T00:49:50.149Z,76.45
2018-03-20T00:50:50.391Z,76.73
2018-03-20T00:51:50.622Z,76.54
2018-03-20T00:52:50.866Z,76.26
2018-03-20T00:53:51.093Z,76.26
2018-03-20T00:54:51.330Z,76.26
2018-03-20T00:55:51.573Z,76.26
2018-03-20T00:56:51.814Z,76.26
2018-03-20T00:57:52.048Z,76.54
2018-03-20T00:58:52.283Z,76.82
2018-03-20T00:59:52.612Z,76.92
2018-03-20T01:00:52.760Z,77.20
2018-03-20T01:01:53.010Z,77.01
2018-03-20T01:02:53.244Z,77.20
2018-03-20T01:03:53.471Z,77.11
2018-03-20T01:04:53.730Z,77.11
2018-03-20T01:05:53.941Z,77.20
2018-03-20T01:06:54.176Z,77.39
2018-03-20T01:07:54.403Z,77.67
2018-03-20T01:08:54.670Z,77.01
2018-03-20T01:09:54.912Z,77.01
2018-03-20T01:10:55.141Z,77.11
2018-03-20T01:11:55.384Z,77.11
2018-03-20T01:12:55.656Z,77.01
2018-03-20T01:13:55.850Z,77.11
2018-03-20T01:14:56.066Z,77.11
2018-03-20T01:15:56.313Z,77.49
2018-03-20T01:16:56.565Z,77.49
2018-03-20T01:17:56.769Z,77.67
2018-03-20T01:18:57.023Z,77.67
2018-03-20T01:19:57.321Z,77.20
2018-03-20T01:20:57.521Z,77.58
2018-03-20T01:21:57.740Z,77.11
2018-03-20T01:22:58.004Z,77.67
2018-03-20T01:23:58.206Z,77.49
2018-03-20T01:24:58.432Z,77.67
2018-03-20T01:25:58.672Z,77.01
2018-03-20T01:26:58.919Z,77.30
2018-03-20T01:27:59.157Z,77.11
2018-03-20T01:28:59.380Z,77.01
2018-03-20T01:29:59.598Z,76.92
2018-03-20T01:30:59.861Z,77.11
2018-03-20T01:32:00.091Z,76.64
2018-03-20T01:33:00.338Z,77.20
2018-03-20T01:34:00.562Z,76.82
2018-03-20T01:35:00.787Z,77.30
2018-03-20T01:36:01.032Z,77.30
2018-03-20T01:37:01.270Z,77.20
2018-03-20T01:38:01.499Z,77.58
2018-03-20T01:39:01.768Z,77.39
2018-03-20T01:40:01.977Z,77.39
2018-03-20T01:41:02.214Z,77.77
2018-03-20T01:42:02.496Z,77.49
2018-03-20T01:43:02.712Z,77.77
2018-03-20T01:44:02.928Z,77.30
2018-03-20T01:45:03.318Z,77.49
2018-03-20T01:46:03.623Z,77.77
2018-03-20T01:47:03.712Z,77.58
2018-03-20T01:48:03.937Z,78.24
2018-03-20T01:49:04.186Z,77.96
2018-03-20T01:50:04.441Z,78.15
2018-03-20T01:51:04.655Z,78.24
2018-03-20T01:52:04.947Z,78.52
2018-03-20T01:53:05.128Z,78.34
2018-03-20T01:54:05.379Z,78.52
2018-03-20T01:55:05.599Z,78.71
2018-03-20T01:56:05.864Z,78.05
2018-03-20T01:57:06.138Z,78.34
2018-03-20T01:58:06.375Z,78.90
2018-03-20T01:59:06.667Z,78.81
2018-03-20T02:00:06.862Z,78.43
2018-03-20T02:01:07.097Z,78.52
2018-03-20T02:02:07.345Z,78.34
2018-03-20T02:03:07.577Z,78.81
2018-03-20T02:04:07.812Z,79.00
2018-03-20T02:05:08.043Z,78.15
2018-03-20T02:06:08.288Z,78.24
2018-03-20T02:07:08.523Z,78.81
2018-03-20T02:08:08.762Z,78.34
2018-03-20T02:09:09.063Z,78.90
2018-03-20T02:10:09.280Z,79.00
2018-03-20T02:11:09.543Z,78.81
2018-03-20T02:12:09.724Z,78.71
2018-03-20T02:13:09.957Z,78.90
2018-03-20T02:14:10.207Z,78.81
2018-03-20T02:15:10.484Z,78.81
2018-03-20T02:16:10.709Z,78.71
2018-03-20T02:17:10.951Z,78.90
2018-03-20T02:18:11.170Z,78.62
2018-03-20T02:19:11.451Z,78.52
2018-03-20T02:20:11.748Z,78.71
2018-03-20T02:21:11.916Z,79.19
2018-03-20T02:22:12.128Z,79.37
2018-03-20T02:23:12.389Z,78.71
2018-03-20T02:24:12.635Z,78.62
2018-03-20T02:25:12.873Z,78.52
2018-03-20T02:26:13.121Z,78.62
2018-03-20T02:27:13.358Z,78.71
2018-03-20T02:28:13.600Z,79.09
2018-03-20T02:29:13.820Z,79.00
2018-03-20T02:30:14.077Z,79.19
2018-03-20T02:31:14.284Z,79.28
2018-03-20T02:32:14.570Z,79.28
2018-03-20T02:33:14.743Z,79.09
2018-03-20T02:34:15.008Z,79.66
2018-03-20T02:35:15.214Z,79.37
2018-03-20T02:36:15.455Z,79.66
2018-03-20T02:37:15.760Z,79.47
2018-03-20T02:38:15.919Z,79.47
2018-03-20T02:39:16.141Z,79.37
2018-03-20T02:40:16.378Z,80.04
2018-03-20T02:41:16.609Z,79.75
2018-03-20T02:42:16.839Z,79.47
2018-03-20T02:43:17.076Z,80.04
2018-03-20T02:44:17.316Z,79.66
2018-03-20T02:45:17.556Z,79.66
2018-03-20T02:46:17.793Z,79.94
2018-03-20T02:47:18.040Z,79.94
2018-03-20T02:48:18.273Z,79.85
2018-03-20T02:49:18.514Z,79.66
2018-03-20T02:50:18.769Z,79.75
2018-03-20T02:51:18.998Z,79.94
2018-03-20T02:52:19.216Z,79.94
2018-03-20T02:53:19.456Z,80.13
2018-03-20T02:54:19.700Z,79.90
2018-03-20T02:55:19.930Z,80.13
2018-03-20T02:56:20.171Z,79.47
2018-03-20T02:57:20.419Z,79.56
2018-03-20T02:58:20.645Z,79.52
2018-03-20T02:59:20.998Z,79.75
2018-03-20T03:00:21.163Z,79.71
2018-03-20T03:01:21.445Z,79.94
2018-03-20T03:02:21.714Z,79.90
2018-03-20T03:03:21.901Z,79.90
2018-03-20T03:04:22.101Z,79.80
2018-03-20T03:05:22.330Z,80.41
2018-03-20T03:06:22.560Z,80.08
2018-03-20T03:07:22.795Z,79.94
2018-03-20T03:08:23.043Z,79.52
2018-03-20T03:09:23.291Z,79.43
2018-03-20T03:10:23.530Z,79.80
2018-03-20T03:11:23.779Z,79.71
2018-03-20T03:12:24.026Z,79.99
2018-03-20T03:13:24.237Z,79.71
2018-03-20T03:14:24.469Z,79.52
2018-03-20T03:15:24.711Z,79.71
2018-03-20T03:16:24.936Z,79.90
2018-03-20T03:17:25.167Z,80.08
2018-03-20T03:18:25.427Z,79.80
2018-03-20T03:19:25.661Z,79.90
2018-03-20T03:20:25.901Z,80.27
2018-03-20T03:21:26.146Z,79.99
2018-03-20T03:22:26.509Z,80.46
2018-03-20T03:23:26.629Z,80.56
2018-03-20T03:24:26.860Z,80.65
2018-03-20T03:25:27.133Z,80.65
2018-03-20T03:26:27.404Z,80.56
2018-03-20T03:27:27.577Z,80.56
2018-03-20T03:28:27.835Z,80.56
2018-03-20T03:29:28.076Z,80.56
2018-03-20T03:30:28.311Z,80.74
2018-03-20T03:31:28.544Z,80.65
2018-03-20T03:32:28.802Z,80.84
2018-03-20T03:33:29.030Z,81.12
2018-03-20T03:34:29.268Z,80.93
2018-03-20T03:35:29.499Z,81.03
2018-03-20T03:36:29.745Z,80.84
2018-03-20T03:37:30.018Z,80.65
2018-03-20T03:38:30.226Z,80.56
2018-03-20T03:39:30.470Z,80.65
2018-03-20T03:40:30.696Z,80.46
2018-03-20T03:41:30.942Z,80.74
2018-03-20T03:42:31.168Z,81.03
2018-03-20T03:43:31.417Z,81.03
2018-03-20T03:44:31.657Z,81.12
2018-03-20T03:45:31.900Z,80.56
2018-03-20T03:46:32.152Z,80.74
2018-03-20T03:47:32.372Z,80.74
2018-03-20T03:48:32.606Z,80.74
2018-03-20T03:49:32.850Z,80.74
2018-03-20T03:50:33.106Z,80.65
2018-03-20T03:51:33.323Z,80.56
2018-03-20T03:52:33.558Z,80.56
2018-03-20T03:53:33.793Z,80.74
2018-03-20T03:54:34.038Z,80.84
2018-03-20T03:55:34.273Z,80.84
2018-03-20T03:56:34.507Z,81.22
2018-03-20T03:57:34.736Z,81.50
2018-03-20T03:58:34.960Z,81.22
2018-03-20T03:59:35.214Z,81.69
2018-03-20T04:00:35.439Z,81.41
2018-03-20T04:01:35.663Z,81.59
2018-03-20T04:02:35.902Z,81.69
2018-03-20T04:03:36.136Z,81.59
2018-03-20T04:04:36.378Z,81.69
2018-03-20T04:05:36.617Z,81.69
2018-03-20T04:06:36.848Z,81.69
2018-03-20T04:07:37.089Z,81.41
2018-03-20T04:08:37.319Z,81.22
2018-03-20T04:09:37.570Z,81.22
2018-03-20T04:10:37.780Z,81.97
2018-03-20T04:11:38.015Z,81.41
2018-03-20T04:12:38.251Z,81.69
2018-03-20T04:13:38.499Z,81.50
2018-03-20T04:14:38.731Z,81.50
2018-03-20T04:15:38.969Z,81.50
2018-03-20T04:16:39.214Z,81.31
2018-03-20T04:17:39.438Z,81.69
2018-03-20T04:18:39.682Z,81.31
2018-03-20T04:19:39.917Z,81.50
2018-03-20T04:20:40.167Z,81.69
2018-03-20T04:21:40.410Z,81.41
2018-03-20T04:22:40.641Z,81.41
2018-03-20T04:23:40.895Z,81.41
2018-03-20T04:24:41.106Z,81.69
2018-03-20T04:25:41.338Z,81.31
2018-03-20T04:26:41.580Z,81.69
2018-03-20T04:27:41.806Z,81.31
2018-03-20T04:28:42.048Z,81.50
2018-03-20T04:29:42.278Z,81.22
2018-03-20T04:30:42.515Z,81.97
2018-03-20T04:31:42.750Z,82.07
2018-03-20T04:32:42.997Z,82.10
2018-03-20T04:33:43.230Z,81.22
2018-03-20T04:34:43.464Z,81.50
2018-03-20T04:35:43.705Z,81.26
2018-03-20T04:36:43.946Z,81.54
2018-03-20T04:37:44.189Z,80.93
2018-03-20T04:38:44.421Z,80.88
2018-03-20T04:39:44.648Z,80.79
2018-03-20T04:40:44.891Z,80.69
2018-03-20T04:41:45.131Z,80.79
2018-03-20T04:42:45.378Z,81.16
2018-03-20T04:43:45.617Z,81.07
2018-03-20T04:44:45.869Z,81.54
2018-03-20T04:45:46.110Z,81.07
2018-03-20T04:46:46.387Z,81.16
2018-03-20T04:47:46.580Z,80.69
2018-03-20T04:48:46.813Z,81.07
2018-03-20T04:49:47.049Z,80.60
2018-03-20T04:50:47.298Z,80.32
2018-03-20T04:51:47.532Z,79.66
2018-03-20T04:52:47.766Z,79.66
2018-03-20T04:53:48.011Z,79.75
2018-03-20T04:54:48.242Z,79.75
2018-03-20T04:55:48.479Z,79.94
2018-03-20T04:56:48.738Z,79.66
2018-03-20T04:57:48.991Z,79.66
2018-03-20T04:58:49.222Z,80.04
2018-03-20T04:59:49.453Z,79.75
2018-03-20T05:00:49.687Z,79.75
2018-03-20T05:01:49.921Z,79.56
2018-03-20T05:02:50.165Z,79.47
2018-03-20T05:03:50.403Z,79.09
2018-03-20T05:04:50.646Z,79.19
2018-03-20T05:05:50.878Z,78.81
2018-03-20T05:06:51.118Z,78.43
2018-03-20T05:07:51.398Z,78.24
2018-03-20T05:08:51.638Z,78.24
2018-03-20T05:09:51.863Z,78.34
2018-03-20T05:10:52.102Z,79.00
2018-03-20T05:11:52.349Z,78.62
2018-03-20T05:12:52.601Z,79.00
2018-03-20T05:13:52.834Z,78.90
2018-03-20T05:14:53.061Z,78.52
2018-03-20T05:15:53.303Z,78.15
2018-03-20T05:16:53.546Z,78.34
2018-03-20T05:17:53.790Z,78.15
2018-03-20T05:18:54.026Z,78.34
2018-03-20T05:19:54.263Z,78.28
2018-03-20T05:20:54.504Z,78.47
2018-03-20T05:21:54.735Z,78.56
2018-03-20T05:22:55.019Z,78.66
2018-03-20T05:23:55.228Z,78.19
2018-03-20T05:24:55.474Z,78.28
2018-03-20T05:25:55.711Z,78.28
2018-03-20T05:26:55.962Z,77.72
2018-03-20T05:27:56.206Z,77.62
2018-03-20T05:28:56.491Z,77.62
2018-03-20T05:29:56.696Z,77.25
2018-03-20T05:30:56.942Z,77.81
2018-03-20T05:31:57.186Z,77.44
2018-03-20T05:32:57.448Z,76.87
2018-03-20T05:33:57.688Z,77.15
2018-03-20T05:34:57.928Z,76.96
2018-03-20T05:35:58.179Z,77.34
2018-03-20T05:36:58.420Z,77.53
2018-03-20T05:37:58.665Z,77.34
2018-03-20T05:38:58.911Z,77.34
2018-03-20T05:39:59.154Z,77.25
2018-03-20T05:40:59.392Z,76.87
2018-03-20T05:41:59.651Z,76.96
2018-03-20T05:42:59.901Z,77.34
2018-03-20T05:44:01.029Z,77.53
2018-03-20T05:45:00.376Z,77.44
2018-03-20T05:46:00.624Z,77.34
2018-03-20T05:47:00.871Z,77.34
2018-03-20T05:48:01.115Z,77.44
2018-03-20T05:49:01.369Z,77.15
2018-03-20T05:50:01.604Z,77.53
2018-03-20T05:51:01.847Z,77.44
2018-03-20T05:52:02.111Z,77.53
2018-03-20T05:53:02.335Z,77.25
2018-03-20T05:54:02.577Z,76.96
2018-03-20T05:55:02.828Z,76.87
2018-03-20T05:56:03.073Z,76.96
2018-03-20T05:57:03.326Z,77.34
2018-03-20T05:58:03.565Z,76.87
2018-03-20T05:59:03.804Z,76.96
2018-03-20T06:00:04.042Z,76.96
2018-03-20T06:01:04.302Z,76.68
2018-03-20T06:02:04.518Z,76.49
2018-03-20T06:03:04.778Z,76.49
2018-03-20T06:04:04.989Z,76.58
2018-03-20T06:05:05.274Z,77.25
2018-03-20T06:06:05.463Z,77.15
2018-03-20T06:07:05.702Z,77.15
2018-03-20T06:08:06.007Z,77.15
2018-03-20T06:09:06.178Z,76.58
2018-03-20T06:10:06.426Z,77.06
2018-03-20T06:11:06.665Z,76.77
2018-03-20T06:12:06.961Z,76.58
2018-03-20T06:13:07.209Z,76.49
2018-03-20T06:14:07.367Z,76.68
2018-03-20T06:15:07.622Z,76.30
2018-03-20T06:16:07.846Z,77.06
2018-03-20T06:17:08.096Z,77.44
2018-03-20T06:18:08.329Z,78.19
2018-03-20T06:19:08.566Z,78.47
2018-03-20T06:20:08.802Z,78.66
2018-03-20T06:21:09.036Z,78.28
2018-03-20T06:22:09.285Z,78.56
2018-03-20T06:23:09.519Z,78.00
2018-03-20T06:24:09.742Z,77.34
2018-03-20T06:25:09.964Z,77.25
2018-03-20T06:26:10.201Z,77.72
2018-03-20T06:27:10.451Z,77.62
2018-03-20T06:28:10.738Z,78.00
2018-03-20T06:29:10.947Z,78.09
2018-03-20T06:30:11.190Z,78.66
2018-03-20T06:31:11.422Z,78.28
2018-03-20T06:32:11.662Z,78.56
2018-03-20T06:33:11.887Z,78.98
2018-03-20T06:34:12.130Z,78.75
2018-03-20T06:35:12.374Z,79.36
2018-03-20T06:36:12.622Z,79.17
2018-03-20T06:37:12.874Z,79.46
2018-03-20T06:38:13.122Z,79.17
2018-03-20T06:39:13.366Z,78.98
2018-03-20T06:40:13.613Z,79.27
2018-03-20T06:41:13.858Z,79.08
2018-03-20T06:42:14.105Z,79.08
2018-03-20T06:43:14.353Z,78.79
2018-03-20T06:44:14.611Z,78.60
2018-03-20T06:45:14.851Z,78.98
2018-03-20T06:46:15.091Z,79.08
2018-03-20T06:47:15.337Z,79.36
2018-03-20T06:48:15.579Z,79.17
2018-03-20T06:49:15.818Z,79.36
2018-03-20T06:50:16.061Z,79.36
2018-03-20T06:51:16.406Z,78.70
2018-03-20T06:52:16.657Z,78.60
2018-03-20T06:53:16.898Z,78.04
